General Manuel Serrano Airport


Codes: SEMH/MCH
Name: General Manuel Serrano Airport
City: Machala
Country: Ecuador
Elevation: 11 ft.
Wikipedia:

Photos at General Manuel Serrano Airport


   Photos courtesy of SpottingLog. You can add your own sightings and photos by signing up for a free trial today.



No photos found.

Weather at General Manuel Serrano Airport


Time (UTC)DescriptionTempratureWindCloud coverageVisibilityPressureHumidity
25-Jun-2024 12:00Overcast Clouds23°C2 mph, W100%10000m1013hPa88%
25-Jun-2024 15:00Overcast Clouds24°C2 mph, N97%10000m1013hPa83%
25-Jun-2024 18:00Broken Clouds26°C9 mph, NW80%10000m1012hPa72%
25-Jun-2024 21:00Broken Clouds26°C9 mph, NW52%10000m1012hPa74%
26-Jun-2024 00:00Broken Clouds23°C7 mph, W74%10000m1014hPa84%
26-Jun-2024 03:00Overcast Clouds23°C4 mph, W100%10000m1016hPa84%
26-Jun-2024 06:00Light Rain22°C2 mph, W100%10000m1015hPa86%
26-Jun-2024 09:00Overcast Clouds22°C2 mph, W100%10000m1014hPa86%
26-Jun-2024 12:00Overcast Clouds23°C2 mph, NE100%10000m1014hPa84%
26-Jun-2024 15:00Overcast Clouds26°C4 mph, NW94%10000m1015hPa69%
26-Jun-2024 18:00Broken Clouds27°C7 mph, NW75%10000m1013hPa67%
26-Jun-2024 21:00Scattered Clouds28°C7 mph, NW32%10000m1010hPa65%
27-Jun-2024 00:00Scattered Clouds24°C4 mph, W38%10000m1012hPa82%
27-Jun-2024 03:00Broken Clouds23°C4 mph, W69%10000m1014hPa84%
27-Jun-2024 06:00Broken Clouds22°C2 mph, NW51%10000m1014hPa85%
27-Jun-2024 09:00Broken Clouds22°C0 mph, N68%10000m1013hPa84%
27-Jun-2024 12:00Broken Clouds23°C2 mph, NE80%10000m1013hPa82%
27-Jun-2024 15:00Broken Clouds26°C7 mph, NW59%10000m1014hPa69%
27-Jun-2024 18:00Broken Clouds27°C7 mph, NW62%10000m1012hPa66%
27-Jun-2024 21:00Scattered Clouds26°C9 mph, NW28%10000m1010hPa70%
28-Jun-2024 00:00Scattered Clouds23°C4 mph, W30%10000m1012hPa85%
28-Jun-2024 03:00Broken Clouds23°C2 mph, W72%10000m1014hPa85%
28-Jun-2024 06:00Overcast Clouds23°C4 mph, W85%10000m1013hPa87%
28-Jun-2024 09:00Overcast Clouds23°C2 mph, W98%10000m1012hPa86%
28-Jun-2024 12:00Overcast Clouds23°C2 mph, NW98%10000m1013hPa84%
28-Jun-2024 15:00Overcast Clouds26°C4 mph, NW89%10000m1014hPa71%
28-Jun-2024 18:00Overcast Clouds26°C7 mph, NW89%10000m1013hPa68%
28-Jun-2024 21:00Broken Clouds26°C7 mph, NW79%10000m1011hPa69%
29-Jun-2024 00:00Broken Clouds23°C4 mph, W65%10000m1013hPa84%
29-Jun-2024 03:00Broken Clouds23°C4 mph, W59%10000m1015hPa87%
29-Jun-2024 06:00Broken Clouds23°C4 mph, SW76%10000m1015hPa86%
29-Jun-2024 09:00Overcast Clouds23°C2 mph, W99%10000m1013hPa86%
29-Jun-2024 12:00Overcast Clouds23°C2 mph, NW96%10000m1014hPa85%
29-Jun-2024 15:00Broken Clouds27°C4 mph, NW76%10000m1015hPa68%
29-Jun-2024 18:00Broken Clouds28°C7 mph, NW65%10000m1012hPa63%
29-Jun-2024 21:00Scattered Clouds27°C9 mph, W28%10000m1011hPa70%
30-Jun-2024 00:00Few Clouds23°C4 mph, SW20%10000m1013hPa86%
30-Jun-2024 03:00Scattered Clouds23°C2 mph, W37%10000m1014hPa87%
30-Jun-2024 06:00Broken Clouds23°C2 mph, W59%10000m1014hPa89%
30-Jun-2024 09:00Overcast Clouds22°C0 mph, NW85%10000m1013hPa90%